Valle de la Providencia, Puerto Rico
Current Conditions -  °F | °C
As of 4:56 AM on Saturday 22 Nov 2014 (Local Time) from TJSJ Reporting Station
Scattered Clouds Scattered Clouds  
Wind Chill: 76°   Ceiling: Unl
Heat Index: 76°   Visibility: 10mi
Dew Point: 75°   Wind: 0mph
Humidity: 97%   Direction: NA
Pressure: 29.97"   Gusts: NA
Location:  18.0086°N, 66.0144°W
Report Text: TJSJ 220856Z 00000KT 10SM FEW018 SCT021 SCT035 24/24 A2997 RMK AO2 RAE04 SLP147 P0000 60009 T02440239 55007
Loading
Personal Weather Stations






























Interactive Weather Map New forecast layout! Learn more

10-Day Weather Forecast

Advertisements
Track Severe Weather on mobile